Time,TemperatureF,DewpointF,PressureIn,WindDirection,WindDirectionDegrees,WindSpeedMPH,WindSpeedGustMPH,Humidity,HourlyPrecipIn,Conditions,Clouds,dailyrainin,SoftwareType,DateUTC
2013-08-01 00:04:00,63.7,60.4,30.00,SW,233,0.0,0.0,89,0.00,,,0.00,Wunderground v.1.15,2013-08-01 04:04:00,
2013-08-01 00:09:00,63.5,60.5,30.00,SW,233,0.0,0.0,90,0.00,,,0.00,Wunderground v.1.15,2013-08-01 04:09:00,
2013-08-01 00:15:00,63.4,60.4,30.00,SW,233,0.0,0.0,90,0.00,,,0.00,Wunderground v.1.15,2013-08-01 04:15:00,
2013-08-01 00:20:00,63.2,60.2,30.00,SW,233,0.0,0.0,90,0.00,,,0.00,Wunderground v.1.15,2013-08-01 04:20:00,
2013-08-01 00:24:00,63.1,60.4,30.00,SW,233,0.0,0.0,91,0.00,,,0.00,Wunderground v.1.15,2013-08-01 04:24:00,
2013-08-01 00:30:00,62.9,60.2,30.00,SW,233,0.0,0.0,91,0.00,,,0.00,Wunderground v.1.15,2013-08-01 04:30:00,
2013-08-01 00:35:00,62.7,60.0,30.00,SW,233,0.0,0.0,91,0.00,,,0.00,Wunderground v.1.15,2013-08-01 04:35:00,
2013-08-01 00:40:00,62.6,59.9,30.00,SW,233,0.0,0.0,91,0.00,,,0.00,Wunderground v.1.15,2013-08-01 04:40:00,
2013-08-01 00:45:00,62.6,60.2,30.00,SW,233,0.0,0.0,92,0.00,,,0.00,Wunderground v.1.15,2013-08-01 04:45:00,
2013-08-01 00:50:00,62.4,60.0,30.00,SW,233,0.0,0.0,92,0.00,,,0.00,Wunderground v.1.15,2013-08-01 04:50:00,
2013-08-01 01:00:00,62.3,59.9,30.00,SW,233,0.0,0.0,92,0.00,,,0.00,Wunderground v.1.15,2013-08-01 05:00:00,
2013-08-01 01:09:00,62.1,60.1,30.00,SW,233,0.0,0.0,93,0.00,,,0.00,Wunderground v.1.15,2013-08-01 05:09:00,
2013-08-01 01:15:00,62.0,60.0,29.99,SW,233,0.0,0.0,93,0.00,,,0.00,Wunderground v.1.15,2013-08-01 05:15:00,
2013-08-01 01:20:00,62.0,60.0,29.99,SW,233,0.0,0.0,93,0.00,,,0.00,Wunderground v.1.15,2013-08-01 05:20:00,
2013-08-01 01:25:00,61.8,59.8,29.99,SW,233,0.0,0.0,93,0.00,,,0.00,Wunderground v.1.15,2013-08-01 05:25:00,
2013-08-01 01:35:00,61.6,59.6,29.99,SW,233,0.0,0.0,93,0.00,,,0.00,Wunderground v.1.15,2013-08-01 05:35:00,
2013-08-01 01:40:00,61.5,59.5,29.99,SW,233,0.0,0.0,93,0.00,,,0.00,Wunderground v.1.15,2013-08-01 05:40:00,
2013-08-01 01:45:00,61.5,59.5,29.99,SW,233,0.0,0.0,93,0.00,,,0.00,Wunderground v.1.15,2013-08-01 05:45:00,
2013-08-01 01:50:00,61.3,59.3,29.99,SW,233,0.0,0.0,93,0.00,,,0.00,Wunderground v.1.15,2013-08-01 05:50:00,
2013-08-01 01:59:00,61.2,59.2,29.98,SW,233,0.0,0.0,93,0.00,,,0.00,Wunderground v.1.15,2013-08-01 05:59:00,
2013-08-01 02:05:00,61.2,59.2,29.98,SW,233,0.0,0.0,93,0.00,,,0.00,Wunderground v.1.15,2013-08-01 06:05:00,
2013-08-01 02:14:00,61.0,59.0,29.98,SW,233,0.0,0.0,93,0.00,,,0.00,Wunderground v.1.15,2013-08-01 06:14:00,
2013-08-01 02:19:00,60.9,59.2,29.98,SW,233,0.0,0.0,94,0.00,,,0.00,Wunderground v.1.15,2013-08-01 06:19:00,
2013-08-01 02:24:00,60.9,59.2,29.98,SW,233,0.0,0.0,94,0.00,,,0.00,Wunderground v.1.15,2013-08-01 06:24:00,
2013-08-01 02:35:00,60.7,59.0,29.98,SW,233,0.0,0.0,94,0.00,,,0.00,Wunderground v.1.15,2013-08-01 06:35:00,
2013-08-01 02:45:00,60.5,58.8,29.97,SW,233,0.0,0.0,94,0.00,,,0.00,Wunderground v.1.15,2013-08-01 06:45:00,
2013-08-01 02:50:00,60.4,58.7,29.97,SW,233,0.0,0.0,94,0.00,,,0.00,Wunderground v.1.15,2013-08-01 06:50:00,
2013-08-01 02:55:00,60.4,58.7,29.97,SW,233,0.0,0.0,94,0.00,,,0.00,Wunderground v.1.15,2013-08-01 06:55:00,
2013-08-01 03:00:00,60.2,58.5,29.97,SW,233,0.0,0.0,94,0.00,,,0.00,Wunderground v.1.15,2013-08-01 07:00:00,
2013-08-01 03:05:00,60.1,58.4,29.97,SW,233,0.0,0.0,94,0.00,,,0.00,Wunderground v.1.15,2013-08-01 07:05:00,
2013-08-01 03:15:00,59.8,58.1,29.97,SW,233,0.0,0.0,94,0.00,,,0.00,Wunderground v.1.15,2013-08-01 07:15:00,
2013-08-01 03:24:00,59.6,57.9,29.97,SW,233,0.0,0.0,94,0.00,,,0.00,Wunderground v.1.15,2013-08-01 07:24:00,
2013-08-01 03:29:00,59.5,58.1,29.97,SW,233,0.0,0.0,95,0.00,,,0.00,Wunderground v.1.15,2013-08-01 07:29:00,
2013-08-01 03:35:00,59.5,58.1,29.97,SW,233,0.0,0.0,95,0.00,,,0.00,Wunderground v.1.15,2013-08-01 07:35:00,
2013-08-01 03:40:00,59.3,57.9,29.97,SW,233,0.0,0.0,95,0.00,,,0.00,Wunderground v.1.15,2013-08-01 07:40:00,
2013-08-01 03:50:00,59.2,57.8,29.96,SW,233,0.0,0.0,95,0.00,,,0.00,Wunderground v.1.15,2013-08-01 07:50:00,
2013-08-01 04:00:00,59.0,57.6,29.96,SW,233,0.0,0.0,95,0.00,,,0.00,Wunderground v.1.15,2013-08-01 08:00:00,
2013-08-01 04:05:00,59.0,57.6,29.96,SW,233,0.0,0.0,95,0.00,,,0.00,Wunderground v.1.15,2013-08-01 08:05:00,
2013-08-01 04:10:00,59.0,57.6,29.96,SW,233,0.0,0.0,95,0.00,,,0.00,Wunderground v.1.15,2013-08-01 08:10:00,
2013-08-01 04:15:00,58.9,57.5,29.96,SW,233,0.0,0.0,95,0.00,,,0.00,Wunderground v.1.15,2013-08-01 08:15:00,
2013-08-01 04:25:00,58.7,57.3,29.96,SW,233,0.0,0.0,95,0.00,,,0.00,Wunderground v.1.15,2013-08-01 08:25:00,
2013-08-01 04:35:00,58.7,57.3,29.96,SW,233,0.0,0.0,95,0.00,,,0.00,Wunderground v.1.15,2013-08-01 08:35:00,
2013-08-01 04:40:00,58.6,57.2,29.96,SW,233,0.0,0.0,95,0.00,,,0.00,Wunderground v.1.15,2013-08-01 08:40:00,
2013-08-01 04:45:00,58.6,57.2,29.96,SW,233,0.0,0.0,95,0.00,,,0.00,Wunderground v.1.15,2013-08-01 08:45:00,
2013-08-01 04:54:00,58.4,57.0,29.96,SW,233,0.0,0.0,95,0.00,,,0.00,Wunderground v.1.15,2013-08-01 08:54:00,
2013-08-01 05:04:00,58.4,57.0,29.96,SW,233,0.0,0.0,95,0.00,,,0.00,Wunderground v.1.15,2013-08-01 09:04:00,
2013-08-01 05:09:00,58.4,57.3,29.96,SW,233,0.0,0.0,96,0.00,,,0.00,Wunderground v.1.15,2013-08-01 09:09:00,
2013-08-01 05:14:00,58.4,57.3,29.97,SW,233,0.0,0.0,96,0.00,,,0.00,Wunderground v.1.15,2013-08-01 09:14:00,
2013-08-01 05:20:00,58.4,57.3,29.97,SW,233,0.0,0.0,96,0.00,,,0.00,Wunderground v.1.15,2013-08-01 09:20:00,
2013-08-01 05:25:00,58.3,57.2,29.97,SW,233,0.0,0.0,96,0.00,,,0.00,Wunderground v.1.15,2013-08-01 09:25:00,
2013-08-01 05:45:00,58.1,57.0,29.97,SW,233,0.0,0.0,96,0.00,,,0.00,Wunderground v.1.15,2013-08-01 09:45:00,
2013-08-01 05:55:00,58.0,56.9,29.97,SW,233,0.0,0.0,96,0.00,,,0.00,Wunderground v.1.15,2013-08-01 09:55:00,
2013-08-01 06:00:00,58.0,56.9,29.96,SW,233,0.0,0.0,96,0.00,,,0.00,Wunderground v.1.15,2013-08-01 10:00:00,
2013-08-01 06:03:00,57.8,56.7,29.96,N/A,-737280,0.0,-999.0,96,0.00,,,0.00,Wunderground v.1.15,2013-08-01 10:03:00,
2013-08-01 06:05:00,57.8,56.7,29.96,SW,233,0.0,0.0,96,0.00,,,0.00,Wunderground v.1.15,2013-08-01 10:05:00,
2013-08-01 06:08:00,57.8,56.7,29.96,N/A,-737280,0.0,-999.0,96,0.00,,,0.00,Wunderground v.1.15,2013-08-01 10:08:00,
2013-08-01 06:10:00,57.8,56.7,29.96,N/A,-737280,0.0,-999.0,96,0.00,,,0.00,Wunderground v.1.15,2013-08-01 10:10:00,
2013-08-01 06:13:00,57.6,56.5,29.96,N/A,-737280,0.0,-999.0,96,0.00,,,0.00,Wunderground v.1.15,2013-08-01 10:13:00,
2013-08-01 06:15:00,57.6,56.5,29.96,N/A,-737280,0.0,-999.0,96,0.00,,,0.00,Wunderground v.1.15,2013-08-01 10:15:00,
2013-08-01 06:18:00,57.6,56.5,29.96,N/A,-737280,0.0,-999.0,96,0.00,,,0.00,Wunderground v.1.15,2013-08-01 10:18:00,
2013-08-01 06:23:00,57.6,56.5,29.96,N/A,-737280,0.0,-999.0,96,0.00,,,0.00,Wunderground v.1.15,2013-08-01 10:23:00,
2013-08-01 06:28:00,57.6,56.8,29.96,N/A,-737280,0.0,-999.0,97,0.00,,,0.00,Wunderground v.1.15,2013-08-01 10:28:00,
2013-08-01 06:33:00,57.5,56.7,29.96,N/A,-737280,0.0,-999.0,97,0.00,,,0.00,Wunderground v.1.15,2013-08-01 10:33:00,
2013-08-01 06:38:00,57.5,56.7,29.96,N/A,-737280,0.0,-999.0,97,0.00,,,0.00,Wunderground v.1.15,2013-08-01 10:38:00,
2013-08-01 06:43:00,57.5,56.7,29.96,N/A,-737280,0.0,-999.0,97,0.00,,,0.00,Wunderground v.1.15,2013-08-01 10:43:00,
2013-08-01 06:45:00,57.5,56.7,29.96,N/A,-737280,0.0,-999.0,97,0.00,,,0.00,Wunderground v.1.15,2013-08-01 10:45:00,
2013-08-01 06:50:00,57.5,56.7,29.96,N/A,-737280,0.0,-999.0,97,0.00,,,0.00,Wunderground v.1.15,2013-08-01 10:50:00,
2013-08-01 06:54:00,57.5,56.7,29.96,SW,233,0.0,0.0,97,0.00,,,0.00,Wunderground v.1.15,2013-08-01 10:54:00,
2013-08-01 07:08:00,57.6,56.8,29.97,SW,233,0.0,0.0,97,0.00,,,0.00,Wunderground v.1.15,2013-08-01 11:08:00,
2013-08-01 07:15:00,58.0,57.2,29.97,SW,233,0.0,0.0,97,0.00,,,0.00,Wunderground v.1.15,2013-08-01 11:15:00,
2013-08-01 07:20:00,58.1,57.5,29.97,SW,233,0.0,0.0,98,0.00,,,0.00,Wunderground v.1.15,2013-08-01 11:20:00,
2013-08-01 07:25:00,58.1,57.5,29.97,SW,233,0.0,0.0,98,0.00,,,0.00,Wunderground v.1.15,2013-08-01 11:25:00,
2013-08-01 07:35:00,58.3,57.7,29.97,SW,233,0.0,0.0,98,0.00,,,0.00,Wunderground v.1.15,2013-08-01 11:35:00,
2013-08-01 07:40:00,58.4,57.8,29.97,SW,233,0.0,0.0,98,0.00,,,0.00,Wunderground v.1.15,2013-08-01 11:40:00,
2013-08-01 07:49:00,59.2,58.6,29.97,SW,233,0.0,0.0,98,0.00,,,0.00,Wunderground v.1.15,2013-08-01 11:49:00,
2013-08-01 07:55:00,59.3,58.7,29.97,SW,233,0.0,0.0,98,0.00,,,0.00,Wunderground v.1.15,2013-08-01 11:55:00,
2013-08-01 08:00:00,59.5,58.9,29.97,SW,233,0.0,0.0,98,0.00,,,0.00,Wunderground v.1.15,2013-08-01 12:00:00,
2013-08-01 08:10:00,59.9,59.6,29.97,SW,233,0.0,0.0,99,0.00,,,0.00,Wunderground v.1.15,2013-08-01 12:10:00,
2013-08-01 08:20:00,61.5,61.5,29.96,SW,233,0.0,0.0,100,0.00,,,0.00,Wunderground v.1.15,2013-08-01 12:20:00,
2013-08-01 08:25:00,63.1,62.8,29.96,SW,233,0.0,0.0,99,0.00,,,0.00,Wunderground v.1.15,2013-08-01 12:25:00,
2013-08-01 08:30:00,64.3,63.4,29.96,SW,233,0.0,0.0,97,0.00,,,0.00,Wunderground v.1.15,2013-08-01 12:30:00,
2013-08-01 08:40:00,66.3,65.1,29.96,SW,233,0.0,0.0,96,0.00,,,0.00,Wunderground v.1.15,2013-08-01 12:40:00,
2013-08-01 08:45:00,67.3,63.6,29.96,SW,229,0.0,0.0,88,0.00,,,0.00,Wunderground v.1.15,2013-08-01 12:45:00,
2013-08-01 08:54:00,69.6,65.2,29.96,WSW,239,0.0,0.0,86,0.00,,,0.00,Wunderground v.1.15,2013-08-01 12:54:00,
2013-08-01 08:59:00,70.6,66.2,29.95,WSW,239,0.0,0.0,86,0.00,,,0.00,Wunderground v.1.15,2013-08-01 12:59:00,
2013-08-01 09:04:00,71.3,65.5,29.95,WSW,239,0.0,0.0,82,0.00,,,0.00,Wunderground v.1.15,2013-08-01 13:04:00,
2013-08-01 09:20:00,73.2,65.6,29.95,WSW,244,0.0,0.0,77,0.00,,,0.00,Wunderground v.1.15,2013-08-01 13:20:00,
2013-08-01 09:25:00,73.5,64.7,29.95,SW,217,0.0,0.0,74,0.00,,,0.00,Wunderground v.1.15,2013-08-01 13:25:00,
2013-08-01 09:30:00,73.7,65.3,29.94,South,185,0.0,0.0,75,0.00,,,0.00,Wunderground v.1.15,2013-08-01 13:30:00,
2013-08-01 09:40:00,75.6,66.3,29.94,SW,227,0.0,0.0,73,0.00,,,0.00,Wunderground v.1.15,2013-08-01 13:40:00,
2013-08-01 09:55:00,76.1,66.4,29.94,SW,226,0.0,2.0,72,0.00,,,0.00,Wunderground v.1.15,2013-08-01 13:55:00,
2013-08-01 10:10:00,77.6,65.3,29.94,South,189,0.0,1.0,66,0.00,,,0.00,Wunderground v.1.15,2013-08-01 14:10:00,
2013-08-01 10:25:00,78.5,64.9,29.93,WSW,237,0.0,1.0,63,0.00,,,0.00,Wunderground v.1.15,2013-08-01 14:25:00,
2013-08-01 10:30:00,78.5,64.9,29.93,SW,224,0.0,0.0,63,0.00,,,0.00,Wunderground v.1.15,2013-08-01 14:30:00,
2013-08-01 10:35:00,78.6,65.8,29.93,WSW,246,0.0,0.0,65,0.00,,,0.00,Wunderground v.1.15,2013-08-01 14:35:00,
2013-08-01 10:40:00,78.8,66.5,29.93,WSW,247,0.0,1.0,66,0.00,,,0.00,Wunderground v.1.15,2013-08-01 14:40:00,
2013-08-01 10:45:00,79.2,66.9,29.93,SW,224,0.0,1.0,66,0.00,,,0.00,Wunderground v.1.15,2013-08-01 14:45:00,
2013-08-01 10:55:00,79.6,64.0,29.93,WSW,247,0.0,3.0,59,0.00,,,0.00,Wunderground v.1.15,2013-08-01 14:55:00,
2013-08-01 11:00:00,79.8,65.2,29.92,WNW,284,1.0,1.0,61,0.00,,,0.00,Wunderground v.1.15,2013-08-01 15:00:00,
2013-08-01 11:05:00,79.9,63.3,29.92,SW,216,0.0,2.0,57,0.00,,,0.00,Wunderground v.1.15,2013-08-01 15:05:00,
2013-08-01 11:15:00,79.2,63.6,29.92,ESE,123,1.0,1.0,59,0.00,,,0.00,Wunderground v.1.15,2013-08-01 15:15:00,
2013-08-01 11:30:00,79.9,62.3,29.91,SW,229,0.0,0.0,55,0.00,,,0.00,Wunderground v.1.15,2013-08-01 15:30:00,
2013-08-01 11:35:00,79.2,62.1,29.91,WSW,246,0.0,0.0,56,0.00,,,0.00,Wunderground v.1.15,2013-08-01 15:35:00,
2013-08-01 11:45:00,78.8,61.8,29.91,SW,236,0.0,1.0,56,0.00,,,0.00,Wunderground v.1.15,2013-08-01 15:45:00,
2013-08-01 11:55:00,80.3,62.1,29.91,SSW,209,1.0,2.0,54,0.00,,,0.00,Wunderground v.1.15,2013-08-01 15:55:00,
2013-08-01 12:00:00,79.6,62.0,29.90,SE,124,0.0,2.0,55,0.00,,,0.00,Wunderground v.1.15,2013-08-01 16:00:00,
2013-08-01 12:10:00,79.2,62.1,29.90,SE,127,1.0,1.0,56,0.00,,,0.00,Wunderground v.1.15,2013-08-01 16:10:00,
2013-08-01 12:19:00,80.5,63.9,29.90,WSW,237,0.0,0.0,57,0.00,,,0.00,Wunderground v.1.15,2013-08-01 16:19:00,
2013-08-01 12:24:00,80.1,62.5,29.90,SW,233,0.0,1.0,55,0.00,,,0.00,Wunderground v.1.15,2013-08-01 16:24:00,
2013-08-01 12:30:00,79.6,63.0,29.90,SSE,162,0.0,0.0,57,0.00,,,0.00,Wunderground v.1.15,2013-08-01 16:30:00,
2013-08-01 12:39:00,80.3,62.1,29.90,WSW,247,1.0,1.0,54,0.00,,,0.00,Wunderground v.1.15,2013-08-01 16:39:00,
2013-08-01 12:44:00,80.5,63.4,29.89,SW,219,1.0,2.0,56,0.00,,,0.00,Wunderground v.1.15,2013-08-01 16:44:00,
2013-08-01 12:49:00,80.3,63.7,29.89,WSW,239,1.0,1.0,57,0.00,,,0.00,Wunderground v.1.15,2013-08-01 16:49:00,
2013-08-01 12:55:00,81.1,63.4,29.89,West,272,1.0,6.0,55,0.00,,,0.00,Wunderground v.1.15,2013-08-01 16:55:00,
2013-08-01 13:15:00,79.6,63.5,29.89,WSW,258,0.0,0.0,58,0.00,,,0.00,Wunderground v.1.15,2013-08-01 17:15:00,
2013-08-01 13:20:00,79.9,62.3,29.89,SE,126,0.0,0.0,55,0.00,,,0.00,Wunderground v.1.15,2013-08-01 17:20:00,
2013-08-01 13:25:00,80.5,62.3,29.89,SW,233,0.0,0.0,54,0.00,,,0.00,Wunderground v.1.15,2013-08-01 17:25:00,
2013-08-01 13:30:00,80.1,62.5,29.88,SW,232,1.0,1.0,55,0.00,,,0.00,Wunderground v.1.15,2013-08-01 17:30:00,
2013-08-01 13:35:00,79.9,62.3,29.88,SSW,202,1.0,2.0,55,0.00,,,0.00,Wunderground v.1.15,2013-08-01 17:35:00,
2013-08-01 13:49:00,78.6,63.6,29.88,WSW,239,0.0,0.0,60,0.00,,,0.00,Wunderground v.1.15,2013-08-01 17:49:00,
2013-08-01 13:55:00,79.0,63.9,29.88,WSW,257,0.0,0.0,60,0.00,,,0.00,Wunderground v.1.15,2013-08-01 17:55:00,
2013-08-01 14:04:00,79.6,64.0,29.87,SSE,162,0.0,0.0,59,0.00,,,0.00,Wunderground v.1.15,2013-08-01 18:04:00,
2013-08-01 14:15:00,78.6,64.5,29.87,SW,224,0.0,1.0,62,0.00,,,0.00,Wunderground v.1.15,2013-08-01 18:15:00,
2013-08-01 14:20:00,78.3,65.1,29.87,SW,229,0.0,0.0,64,0.00,,,0.00,Wunderground v.1.15,2013-08-01 18:20:00,
2013-08-01 14:25:00,79.2,64.6,29.87,SW,232,0.0,4.0,61,0.00,,,0.00,Wunderground v.1.15,2013-08-01 18:25:00,
2013-08-01 14:35:00,78.8,64.2,29.86,WSW,240,1.0,1.0,61,0.00,,,0.00,Wunderground v.1.15,2013-08-01 18:35:00,
2013-08-01 14:40:00,78.5,65.8,29.86,South,179,1.0,1.0,65,0.00,,,0.00,Wunderground v.1.15,2013-08-01 18:40:00,
2013-08-01 14:45:00,78.5,65.3,29.86,SW,220,1.0,1.0,64,0.00,,,0.00,Wunderground v.1.15,2013-08-01 18:45:00,
2013-08-01 14:55:00,78.1,64.9,29.86,SSE,165,0.0,0.0,64,0.00,,,0.00,Wunderground v.1.15,2013-08-01 18:55:00,
2013-08-01 15:00:00,77.9,65.2,29.86,SW,219,0.0,0.0,65,0.00,,,0.00,Wunderground v.1.15,2013-08-01 19:00:00,
2013-08-01 15:05:00,77.7,65.4,29.86,SW,234,0.0,2.0,66,0.00,,,0.00,Wunderground v.1.15,2013-08-01 19:05:00,
2013-08-01 15:14:00,77.7,66.3,29.86,WSW,250,0.0,1.0,68,0.00,,,0.00,Wunderground v.1.15,2013-08-01 19:14:00,
2013-08-01 15:20:00,77.6,64.9,29.86,SW,222,1.0,1.0,65,0.00,,,0.00,Wunderground v.1.15,2013-08-01 19:20:00,
2013-08-01 15:30:00,77.4,64.7,29.86,SSE,164,1.0,1.0,65,0.00,,,0.00,Wunderground v.1.15,2013-08-01 19:30:00,
2013-08-01 15:39:00,77.0,66.0,29.86,SSW,212,0.0,0.0,69,0.00,,,0.00,Wunderground v.1.15,2013-08-01 19:39:00,
2013-08-01 15:45:00,76.8,65.9,29.86,SW,220,0.0,0.0,69,0.00,,,0.00,Wunderground v.1.15,2013-08-01 19:45:00,
2013-08-01 15:50:00,76.5,66.0,29.86,West,263,0.0,0.0,70,0.00,,,0.00,Wunderground v.1.15,2013-08-01 19:50:00,
2013-08-01 15:55:00,76.3,65.8,29.86,WSW,246,0.0,0.0,70,0.00,,,0.00,Wunderground v.1.15,2013-08-01 19:55:00,
2013-08-01 16:05:00,76.1,66.4,29.86,WSW,239,0.0,0.0,72,0.00,,,0.00,Wunderground v.1.15,2013-08-01 20:05:00,
2013-08-01 16:15:00,76.1,66.4,29.85,WSW,241,0.0,1.0,72,0.00,,,0.00,Wunderground v.1.15,2013-08-01 20:15:00,
2013-08-01 16:20:00,76.1,66.0,29.85,WSW,240,0.0,0.0,71,0.00,,,0.00,Wunderground v.1.15,2013-08-01 20:20:00,
2013-08-01 16:25:00,76.1,66.0,29.85,SSE,157,0.0,0.0,71,0.00,,,0.00,Wunderground v.1.15,2013-08-01 20:25:00,
2013-08-01 16:30:00,76.1,66.4,29.86,SSE,157,0.0,0.0,72,0.00,,,0.00,Wunderground v.1.15,2013-08-01 20:30:00,
2013-08-01 16:35:00,76.1,66.8,29.86,SSE,157,0.0,0.0,73,0.00,,,0.00,Wunderground v.1.15,2013-08-01 20:35:00,
2013-08-01 16:40:00,76.1,66.8,29.86,SSW,210,0.0,0.0,73,0.00,,,0.00,Wunderground v.1.15,2013-08-01 20:40:00,
2013-08-01 16:55:00,75.6,69.0,29.86,SSW,213,0.0,0.0,80,0.00,,,0.01,Wunderground v.1.15,2013-08-01 20:55:00,
2013-08-01 17:00:00,75.4,68.8,29.86,SSW,213,0.0,0.0,80,0.00,,,0.01,Wunderground v.1.15,2013-08-01 21:00:00,
2013-08-01 17:09:00,74.7,69.2,29.86,SSW,213,0.0,0.0,83,0.00,,,0.01,Wunderground v.1.15,2013-08-01 21:09:00,
2013-08-01 17:14:00,74.4,68.9,29.85,SSW,213,0.0,0.0,83,0.00,,,0.01,Wunderground v.1.15,2013-08-01 21:14:00,
2013-08-01 17:19:00,74.2,69.4,29.85,SSW,213,0.0,0.0,85,0.00,,,0.01,Wunderground v.1.15,2013-08-01 21:19:00,
2013-08-01 17:25:00,73.9,69.4,29.85,SSW,213,0.0,0.0,86,0.00,,,0.01,Wunderground v.1.15,2013-08-01 21:25:00,
2013-08-01 17:34:00,73.0,67.2,29.86,SW,219,0.0,2.0,82,0.00,,,0.01,Wunderground v.1.15,2013-08-01 21:34:00,
2013-08-01 17:40:00,72.7,67.2,29.86,SW,226,0.0,0.0,83,0.00,,,0.01,Wunderground v.1.15,2013-08-01 21:40:00,
2013-08-01 17:50:00,72.3,68.2,29.85,SW,226,0.0,0.0,87,0.00,,,0.01,Wunderground v.1.15,2013-08-01 21:50:00,
2013-08-01 17:55:00,72.0,67.6,29.85,SSW,213,0.0,0.0,86,0.00,,,0.01,Wunderground v.1.15,2013-08-01 21:55:00,
2013-08-01 18:00:00,71.6,67.2,29.85,SW,234,0.0,0.0,86,0.00,,,0.01,Wunderground v.1.15,2013-08-01 22:00:00,
2013-08-01 18:10:00,71.3,67.6,29.85,SW,234,0.0,0.0,88,0.00,,,0.01,Wunderground v.1.15,2013-08-01 22:10:00,
2013-08-01 18:15:00,70.9,67.2,29.86,SW,234,0.0,0.0,88,0.00,,,0.01,Wunderground v.1.15,2013-08-01 22:15:00,
2013-08-01 18:20:00,70.8,67.4,29.86,SW,234,0.0,0.0,89,0.00,,,0.01,Wunderground v.1.15,2013-08-01 22:20:00,
2013-08-01 18:25:00,70.6,67.2,29.86,SW,234,0.0,0.0,89,0.00,,,0.01,Wunderground v.1.15,2013-08-01 22:25:00,
2013-08-01 18:30:00,70.4,67.0,29.87,SW,234,0.0,0.0,89,0.00,,,0.01,Wunderground v.1.15,2013-08-01 22:30:00,
2013-08-01 18:40:00,69.9,66.5,29.87,SSE,158,0.0,0.0,89,0.00,,,0.01,Wunderground v.1.15,2013-08-01 22:40:00,
2013-08-01 18:45:00,69.6,66.2,29.87,SE,145,0.0,0.0,89,0.00,,,0.02,Wunderground v.1.15,2013-08-01 22:45:00,
2013-08-01 18:50:00,69.4,66.0,29.87,WSW,237,0.0,0.0,89,0.00,,,0.02,Wunderground v.1.15,2013-08-01 22:50:00,
2013-08-01 18:55:00,69.3,66.2,29.87,WSW,237,0.0,0.0,90,0.00,,,0.02,Wunderground v.1.15,2013-08-01 22:55:00,
2013-08-01 19:00:00,69.1,65.7,29.86,SW,229,0.0,0.0,89,0.04,,,0.03,Wunderground v.1.15,2013-08-01 23:00:00,
2013-08-01 19:10:00,68.9,66.2,29.86,SW,229,0.0,0.0,91,0.04,,,0.03,Wunderground v.1.15,2013-08-01 23:10:00,
2013-08-01 19:19:00,68.8,66.1,29.86,SW,229,0.0,0.0,91,0.00,,,0.03,Wunderground v.1.15,2013-08-01 23:19:00,
2013-08-01 19:24:00,68.6,65.9,29.86,SW,229,0.0,0.0,91,0.00,,,0.03,Wunderground v.1.15,2013-08-01 23:24:00,
2013-08-01 19:29:00,68.4,66.0,29.86,SW,229,0.0,0.0,92,0.00,,,0.03,Wunderground v.1.15,2013-08-01 23:29:00,
2013-08-01 19:34:00,68.3,65.9,29.86,SW,229,0.0,0.0,92,0.00,,,0.03,Wunderground v.1.15,2013-08-01 23:34:00,
2013-08-01 19:39:00,68.3,65.9,29.86,SW,229,0.0,0.0,92,0.00,,,0.03,Wunderground v.1.15,2013-08-01 23:39:00,
2013-08-01 19:45:00,68.1,66.0,29.86,SW,229,0.0,0.0,93,0.00,,,0.03,Wunderground v.1.15,2013-08-01 23:45:00,
2013-08-01 19:54:00,67.8,65.7,29.86,SW,229,0.0,0.0,93,0.00,,,0.03,Wunderground v.1.15,2013-08-01 23:54:00,
2013-08-01 19:59:00,67.8,65.7,29.87,SW,229,0.0,0.0,93,0.00,,,0.03,Wunderground v.1.15,2013-08-01 23:59:00,
2013-08-01 20:05:00,67.6,65.5,29.87,SW,229,0.0,0.0,93,0.00,,,0.03,Wunderground v.1.15,2013-08-02 00:05:00,
2013-08-01 20:10:00,67.4,65.6,29.87,SW,229,0.0,0.0,94,0.00,,,0.03,Wunderground v.1.15,2013-08-02 00:10:00,
2013-08-01 20:20:00,67.3,65.5,29.86,SW,229,0.0,0.0,94,0.00,,,0.03,Wunderground v.1.15,2013-08-02 00:20:00,
2013-08-01 20:30:00,67.1,65.6,29.87,SW,229,0.0,0.0,95,0.00,,,0.03,Wunderground v.1.15,2013-08-02 00:30:00,
2013-08-01 20:35:00,66.9,65.4,29.87,SW,229,0.0,0.0,95,0.00,,,0.03,Wunderground v.1.15,2013-08-02 00:35:00,
2013-08-01 20:40:00,66.9,65.4,29.87,SW,229,0.0,0.0,95,0.00,,,0.03,Wunderground v.1.15,2013-08-02 00:40:00,
2013-08-01 20:45:00,66.9,65.4,29.87,SW,229,0.0,0.0,95,0.00,,,0.03,Wunderground v.1.15,2013-08-02 00:45:00,
2013-08-01 20:50:00,66.8,65.3,29.87,SW,229,0.0,0.0,95,0.00,,,0.03,Wunderground v.1.15,2013-08-02 00:50:00,
2013-08-01 21:05:00,66.6,65.4,29.87,SW,229,0.0,0.0,96,0.00,,,0.03,Wunderground v.1.15,2013-08-02 01:05:00,
2013-08-01 21:14:00,66.6,65.4,29.86,SW,229,0.0,0.0,96,0.00,,,0.03,Wunderground v.1.15,2013-08-02 01:14:00,
2013-08-01 21:19:00,66.4,65.2,29.86,SW,229,0.0,0.0,96,0.00,,,0.03,Wunderground v.1.15,2013-08-02 01:19:00,
2013-08-01 21:24:00,66.4,65.2,29.86,SW,229,0.0,0.0,96,0.00,,,0.03,Wunderground v.1.15,2013-08-02 01:24:00,
2013-08-01 21:29:00,66.4,65.2,29.86,SW,229,0.0,0.0,96,0.00,,,0.03,Wunderground v.1.15,2013-08-02 01:29:00,
2013-08-01 21:39:00,66.3,65.1,29.86,SW,229,0.0,0.0,96,0.00,,,0.03,Wunderground v.1.15,2013-08-02 01:39:00,
2013-08-01 21:44:00,66.3,65.1,29.86,SW,229,0.0,0.0,96,0.00,,,0.03,Wunderground v.1.15,2013-08-02 01:44:00,
2013-08-01 21:50:00,66.3,65.1,29.86,SW,229,0.0,0.0,96,0.00,,,0.03,Wunderground v.1.15,2013-08-02 01:50:00,
2013-08-01 21:55:00,66.3,65.1,29.86,SW,229,0.0,0.0,96,0.00,,,0.03,Wunderground v.1.15,2013-08-02 01:55:00,
2013-08-01 22:00:00,66.3,65.1,29.86,SW,229,0.0,0.0,96,0.00,,,0.03,Wunderground v.1.15,2013-08-02 02:00:00,
2013-08-01 22:10:00,66.3,64.8,29.86,SW,229,0.0,0.0,95,0.00,,,0.03,Wunderground v.1.15,2013-08-02 02:10:00,
2013-08-01 22:15:00,66.1,64.6,29.86,SW,229,0.0,0.0,95,0.00,,,0.03,Wunderground v.1.15,2013-08-02 02:15:00,
2013-08-01 22:20:00,66.1,64.9,29.86,SW,229,0.0,0.0,96,0.00,,,0.03,Wunderground v.1.15,2013-08-02 02:20:00,
2013-08-01 22:25:00,66.1,64.9,29.86,SW,229,0.0,0.0,96,0.00,,,0.03,Wunderground v.1.15,2013-08-02 02:25:00,
2013-08-01 22:30:00,66.1,64.9,29.86,SW,229,0.0,0.0,96,0.00,,,0.03,Wunderground v.1.15,2013-08-02 02:30:00,
2013-08-01 22:35:00,66.1,64.9,29.86,SW,229,0.0,0.0,96,0.00,,,0.03,Wunderground v.1.15,2013-08-02 02:35:00,
2013-08-01 22:40:00,66.1,64.9,29.86,SW,229,0.0,0.0,96,0.00,,,0.03,Wunderground v.1.15,2013-08-02 02:40:00,
2013-08-01 22:50:00,66.0,64.2,29.85,SW,229,0.0,0.0,94,0.00,,,0.03,Wunderground v.1.15,2013-08-02 02:50:00,
2013-08-01 22:55:00,66.0,64.2,29.85,SW,229,0.0,0.0,94,0.00,,,0.03,Wunderground v.1.15,2013-08-02 02:55:00,
2013-08-01 23:00:00,66.0,64.2,29.85,SW,229,0.0,0.0,94,0.00,,,0.03,Wunderground v.1.15,2013-08-02 03:00:00,
2013-08-01 23:05:00,66.0,64.5,29.85,SW,229,0.0,0.0,95,0.00,,,0.03,Wunderground v.1.15,2013-08-02 03:05:00,
2013-08-01 23:14:00,66.0,64.5,29.84,SW,229,0.0,0.0,95,0.00,,,0.03,Wunderground v.1.15,2013-08-02 03:14:00,
2013-08-01 23:24:00,65.8,64.3,29.84,SW,229,0.0,0.0,95,0.00,,,0.03,Wunderground v.1.15,2013-08-02 03:24:00,
2013-08-01 23:29:00,65.8,64.3,29.84,SW,229,0.0,0.0,95,0.00,,,0.03,Wunderground v.1.15,2013-08-02 03:29:00,
2013-08-01 23:34:00,65.8,64.3,29.84,SW,229,0.0,0.0,95,0.00,,,0.03,Wunderground v.1.15,2013-08-02 03:34:00,
2013-08-01 23:39:00,65.6,64.1,29.84,SW,229,0.0,0.0,95,0.00,,,0.03,Wunderground v.1.15,2013-08-02 03:39:00,
2013-08-01 23:44:00,65.6,64.1,29.84,SW,229,0.0,0.0,95,0.00,,,0.03,Wunderground v.1.15,2013-08-02 03:44:00,
2013-08-01 23:49:00,65.6,64.1,29.84,SW,229,0.0,0.0,95,0.00,,,0.03,Wunderground v.1.15,2013-08-02 03:49:00,
2013-08-01 23:59:00,65.5,64.0,29.83,SW,229,0.0,0.0,95,0.00,,,0.04,Wunderground v.1.15,2013-08-02 03:59:00,